sensor_id;sensor_type;location;lat;lon;timestamp;pressure;altitude;pressure_sealevel;temperature;humidity
3294;BME280;1659;51.470;6.770;2023-02-13T00:01:31;103588.69;;;8.75;78.76
3294;BME280;1659;51.470;6.770;2023-02-13T00:03:58;103583.34;;;8.73;78.77
3294;BME280;1659;51.470;6.770;2023-02-13T00:06:27;103573.66;;;8.72;79.13
3294;BME280;1659;51.470;6.770;2023-02-13T00:08:53;103570.16;;;8.73;79.22
3294;BME280;1659;51.470;6.770;2023-02-13T00:11:20;103577.19;;;8.73;79.35
3294;BME280;1659;51.470;6.770;2023-02-13T00:13:46;103571.03;;;8.72;78.92
3294;BME280;1659;51.470;6.770;2023-02-13T00:16:13;103570.13;;;8.72;79.27
3294;BME280;1659;51.470;6.770;2023-02-13T00:18:39;103568.34;;;8.71;79.11
3294;BME280;1659;51.470;6.770;2023-02-13T00:21:07;103567.47;;;8.72;78.91
3294;BME280;1659;51.470;6.770;2023-02-13T00:23:36;103561.31;;;8.71;79.42
3294;BME280;1659;51.470;6.770;2023-02-13T00:26:05;103563.91;;;8.69;79.11
3294;BME280;1659;51.470;6.770;2023-02-13T00:28:32;103561.25;;;8.69;79.36
3294;BME280;1659;51.470;6.770;2023-02-13T00:31:06;103560.44;;;8.71;78.93
3294;BME280;1659;51.470;6.770;2023-02-13T00:33:35;103567.41;;;8.70;79.41
3294;BME280;1659;51.470;6.770;2023-02-13T00:36:07;103561.31;;;8.71;79.13
3294;BME280;1659;51.470;6.770;2023-02-13T00:38:36;103556.88;;;8.70;79.18
3294;BME280;1659;51.470;6.770;2023-02-13T00:41:04;103556.03;;;8.71;79.50
3294;BME280;1659;51.470;6.770;2023-02-13T00:43:31;103557.84;;;8.72;79.08
3294;BME280;1659;51.470;6.770;2023-02-13T00:45:58;103559.50;;;8.70;79.35
3294;BME280;1659;51.470;6.770;2023-02-13T00:48:26;103554.28;;;8.72;79.42
3294;BME280;1659;51.470;6.770;2023-02-13T00:50:53;103563.94;;;8.71;79.29
3294;BME280;1659;51.470;6.770;2023-02-13T00:53:20;103556.00;;;8.69;79.48
3294;BME280;1659;51.470;6.770;2023-02-13T00:55:49;103558.63;;;8.69;79.15
3294;BME280;1659;51.470;6.770;2023-02-13T00:58:19;103553.28;;;8.68;79.32
3294;BME280;1659;51.470;6.770;2023-02-13T01:00:46;103561.19;;;8.68;79.07
3294;BME280;1659;51.470;6.770;2023-02-13T01:03:12;103561.19;;;8.68;79.59
3294;BME280;1659;51.470;6.770;2023-02-13T01:05:39;103567.41;;;8.68;79.70
3294;BME280;1659;51.470;6.770;2023-02-13T01:08:06;103567.41;;;8.68;79.54
3294;BME280;1659;51.470;6.770;2023-02-13T01:10:32;103554.16;;;8.67;79.47
3294;BME280;1659;51.470;6.770;2023-02-13T01:13:00;103562.06;;;8.67;79.41
3294;BME280;1659;51.470;6.770;2023-02-13T01:15:27;103555.03;;;8.67;79.54
3294;BME280;1659;51.470;6.770;2023-02-13T01:17:53;103550.66;;;8.68;79.66
3294;BME280;1659;51.470;6.770;2023-02-13T01:20:22;103564.69;;;8.67;79.77
3294;BME280;1659;51.470;6.770;2023-02-13T01:22:49;103563.78;;;8.66;79.77
3294;BME280;1659;51.470;6.770;2023-02-13T01:25:16;103560.31;;;8.67;79.36
3294;BME280;1659;51.470;6.770;2023-02-13T01:27:42;103555.03;;;8.67;79.43
3294;BME280;1659;51.470;6.770;2023-02-13T01:30:12;103559.47;;;8.68;79.86
3294;BME280;1659;51.470;6.770;2023-02-13T01:32:40;103558.56;;;8.68;79.57
3294;BME280;1659;51.470;6.770;2023-02-13T01:35:07;103555.94;;;8.68;79.63
3294;BME280;1659;51.470;6.770;2023-02-13T01:37:34;103548.03;;;8.68;79.51
3294;BME280;1659;51.470;6.770;2023-02-13T01:40:01;103554.16;;;8.67;79.25
3294;BME280;1659;51.470;6.770;2023-02-13T01:42:29;103551.47;;;8.65;79.37
3294;BME280;1659;51.470;6.770;2023-02-13T01:44:57;103545.31;;;8.65;79.63
3294;BME280;1659;51.470;6.770;2023-02-13T01:47:28;103550.59;;;8.65;79.83
3294;BME280;1659;51.470;6.770;2023-02-13T01:50:05;103548.78;;;8.64;79.32
3294;BME280;1659;51.470;6.770;2023-02-13T01:52:35;103553.09;;;8.62;79.60
3294;BME280;1659;51.470;6.770;2023-02-13T01:55:04;103542.50;;;8.60;79.70
3294;BME280;1659;51.470;6.770;2023-02-13T01:57:32;103546.88;;;8.60;79.61
3294;BME280;1659;51.470;6.770;2023-02-13T02:00:02;103538.91;;;8.58;79.31
3294;BME280;1659;51.470;6.770;2023-02-13T02:02:35;103546.78;;;8.57;79.25
3294;BME280;1659;51.470;6.770;2023-02-13T02:05:04;103539.69;;;8.56;79.58
3294;BME280;1659;51.470;6.770;2023-02-13T02:07:32;103539.69;;;8.56;79.51
3294;BME280;1659;51.470;6.770;2023-02-13T02:10:02;103537.06;;;8.56;79.18
3294;BME280;1659;51.470;6.770;2023-02-13T02:12:34;103537.00;;;8.54;79.55
3294;BME280;1659;51.470;6.770;2023-02-13T02:15:03;103541.38;;;8.54;79.12
3294;BME280;1659;51.470;6.770;2023-02-13T02:17:31;103537.81;;;8.52;79.56
3294;BME280;1659;51.470;6.770;2023-02-13T02:20:05;103534.22;;;8.49;79.73
3294;BME280;1659;51.470;6.770;2023-02-13T02:23:01;103540.34;;;8.48;79.50
3294;BME280;1659;51.470;6.770;2023-02-13T02:26:03;103537.63;;;8.47;79.55
3294;BME280;1659;51.470;6.770;2023-02-13T02:28:57;103535.88;;;8.46;79.84
3294;BME280;1659;51.470;6.770;2023-02-13T02:34:39;103536.63;;;8.43;79.59
3294;BME280;1659;51.470;6.770;2023-02-13T02:37:20;103538.38;;;8.43;79.43
3294;BME280;1659;51.470;6.770;2023-02-13T02:39:58;103534.78;;;8.41;79.34
3294;BME280;1659;51.470;6.770;2023-02-13T02:42:33;103546.22;;;8.41;80.01
3294;BME280;1659;51.470;6.770;2023-02-13T02:45:08;103534.72;;;8.39;79.49
3294;BME280;1659;51.470;6.770;2023-02-13T02:47:41;103539.03;;;8.37;79.63
3294;BME280;1659;51.470;6.770;2023-02-13T02:50:34;103537.19;;;8.35;79.83
3294;BME280;1659;51.470;6.770;2023-02-13T02:53:16;103538.06;;;8.35;79.62
3294;BME280;1659;51.470;6.770;2023-02-13T02:55:48;103539.81;;;8.35;79.83
3294;BME280;1659;51.470;6.770;2023-02-13T02:58:19;103546.84;;;8.34;79.61
3294;BME280;1659;51.470;6.770;2023-02-13T03:01:06;103544.16;;;8.32;79.74
3294;BME280;1659;51.470;6.770;2023-02-13T03:03:55;103549.34;;;8.31;79.87
3294;BME280;1659;51.470;6.770;2023-02-13T03:06:44;103540.50;;;8.29;79.71
3294;BME280;1659;51.470;6.770;2023-02-13T03:09:14;103543.09;;;8.27;79.81
3294;BME280;1659;51.470;6.770;2023-02-13T03:12:00;103538.63;;;8.26;79.63
3294;BME280;1659;51.470;6.770;2023-02-13T03:14:45;103534.19;;;8.24;79.80
3294;BME280;1659;51.470;6.770;2023-02-13T03:17:14;103535.00;;;8.23;79.86
3294;BME280;1659;51.470;6.770;2023-02-13T03:20:13;103538.50;;;8.22;79.99
3294;BME280;1659;51.470;6.770;2023-02-13T03:23:09;103541.13;;;8.22;79.49
3294;BME280;1659;51.470;6.770;2023-02-13T03:28:36;103537.50;;;8.18;80.03
3294;BME280;1659;51.470;6.770;2023-02-13T03:31:29;103533.91;;;8.16;79.52
3294;BME280;1659;51.470;6.770;2023-02-13T03:34:01;103545.28;;;8.15;79.96
3294;BME280;1659;51.470;6.770;2023-02-13T03:36:36;103546.09;;;8.14;80.28
3294;BME280;1659;51.470;6.770;2023-02-13T03:39:43;103546.84;;;8.10;80.25
3294;BME280;1659;51.470;6.770;2023-02-13T03:42:18;103541.53;;;8.08;79.73
3294;BME280;1659;51.470;6.770;2023-02-13T03:44:52;103544.09;;;8.07;80.32
3294;BME280;1659;51.470;6.770;2023-02-13T03:47:34;103544.91;;;8.04;80.00
3294;BME280;1659;51.470;6.770;2023-02-13T03:50:02;103541.31;;;8.02;79.88
3294;BME280;1659;51.470;6.770;2023-02-13T03:52:38;103546.59;;;8.02;80.31
3294;BME280;1659;51.470;6.770;2023-02-13T03:55:11;103539.50;;;8.01;80.18
3294;BME280;1659;51.470;6.770;2023-02-13T03:58:01;103550.88;;;8.00;80.07
3294;BME280;1659;51.470;6.770;2023-02-13T04:00:48;103546.47;;;7.99;80.25
3294;BME280;1659;51.470;6.770;2023-02-13T04:03:21;103557.00;;;7.99;80.53
3294;BME280;1659;51.470;6.770;2023-02-13T04:05:54;103555.19;;;7.98;80.49
3294;BME280;1659;51.470;6.770;2023-02-13T04:08:24;103552.56;;;7.98;80.69
3294;BME280;1659;51.470;6.770;2023-02-13T04:10:53;103549.84;;;7.95;80.26
3294;BME280;1659;51.470;6.770;2023-02-13T04:13:26;103549.84;;;7.95;80.33
3294;BME280;1659;51.470;6.770;2023-02-13T04:15:58;103545.47;;;7.96;80.10
3294;BME280;1659;51.470;6.770;2023-02-13T04:18:28;103552.50;;;7.97;80.70
3294;BME280;1659;51.470;6.770;2023-02-13T04:20:56;103550.72;;;7.96;80.13
3294;BME280;1659;51.470;6.770;2023-02-13T04:23:24;103543.72;;;7.96;80.18
3294;BME280;1659;51.470;6.770;2023-02-13T04:25:53;103536.66;;;7.95;80.56
3294;BME280;1659;51.470;6.770;2023-02-13T04:28:20;103549.84;;;7.95;80.23
3294;BME280;1659;51.470;6.770;2023-02-13T04:30:47;103538.38;;;7.94;80.19
3294;BME280;1659;51.470;6.770;2023-02-13T04:33:14;103541.88;;;7.93;80.25
3294;BME280;1659;51.470;6.770;2023-02-13T04:35:40;103547.16;;;7.93;80.29
3294;BME280;1659;51.470;6.770;2023-02-13T04:38:07;103548.84;;;7.93;80.62
3294;BME280;1659;51.470;6.770;2023-02-13T04:40:35;103547.97;;;7.92;80.41
3294;BME280;1659;51.470;6.770;2023-02-13T04:43:01;103554.97;;;7.92;80.66
3294;BME280;1659;51.470;6.770;2023-02-13T04:45:28;103554.97;;;7.92;80.85
3294;BME280;1659;51.470;6.770;2023-02-13T04:47:56;103551.50;;;7.93;80.35
3294;BME280;1659;51.470;6.770;2023-02-13T04:50:23;103547.09;;;7.92;80.29
3294;BME280;1659;51.470;6.770;2023-02-13T04:52:52;103547.91;;;7.91;80.77
3294;BME280;1659;51.470;6.770;2023-02-13T04:55:20;103551.44;;;7.91;80.90
3294;BME280;1659;51.470;6.770;2023-02-13T04:57:50;103541.81;;;7.92;80.91
3294;BME280;1659;51.470;6.770;2023-02-13T05:00:18;103539.19;;;7.92;81.08
3294;BME280;1659;51.470;6.770;2023-02-13T05:02:45;103537.44;;;7.92;80.41
3294;BME280;1659;51.470;6.770;2023-02-13T05:05:11;103531.28;;;7.92;80.71
3294;BME280;1659;51.470;6.770;2023-02-13T05:07:38;103533.00;;;7.91;80.77
3294;BME280;1659;51.470;6.770;2023-02-13T05:10:05;103525.97;;;7.90;80.50
3294;BME280;1659;51.470;6.770;2023-02-13T05:12:32;103531.22;;;7.90;80.96
3294;BME280;1659;51.470;6.770;2023-02-13T05:15:00;103539.06;;;7.89;81.07
3294;BME280;1659;51.470;6.770;2023-02-13T05:17:26;103539.88;;;7.88;80.86
3294;BME280;1659;51.470;6.770;2023-02-13T05:19:53;103533.66;;;7.86;80.65
3294;BME280;1659;51.470;6.770;2023-02-13T05:22:19;103533.63;;;7.84;81.20
3294;BME280;1659;51.470;6.770;2023-02-13T05:25:03;103529.22;;;7.83;81.23
3294;BME280;1659;51.470;6.770;2023-02-13T05:27:30;103537.09;;;7.83;81.37
3294;BME280;1659;51.470;6.770;2023-02-13T05:29:57;103531.78;;;7.82;81.15
3294;BME280;1659;51.470;6.770;2023-02-13T05:32:25;103533.53;;;7.81;81.25
3294;BME280;1659;51.470;6.770;2023-02-13T05:34:51;103529.09;;;7.80;81.52
3294;BME280;1659;51.470;6.770;2023-02-13T05:37:18;103525.50;;;7.78;81.37
3294;BME280;1659;51.470;6.770;2023-02-13T05:39:44;103533.34;;;7.77;81.56
3294;BME280;1659;51.470;6.770;2023-02-13T05:42:11;103520.06;;;7.73;81.50
3294;BME280;1659;51.470;6.770;2023-02-13T05:44:37;103516.47;;;7.71;81.59
3294;BME280;1659;51.470;6.770;2023-02-13T05:47:04;103517.44;;;7.73;81.91
3294;BME280;1659;51.470;6.770;2023-02-13T05:49:32;103521.06;;;7.77;81.29
3294;BME280;1659;51.470;6.770;2023-02-13T05:51:58;103517.59;;;7.78;81.38
3294;BME280;1659;51.470;6.770;2023-02-13T05:54:25;103516.75;;;7.79;81.36
3294;BME280;1659;51.470;6.770;2023-02-13T05:56:54;103519.28;;;7.76;81.12
3294;BME280;1659;51.470;6.770;2023-02-13T05:59:21;103524.25;;;7.68;82.09
3294;BME280;1659;51.470;6.770;2023-02-13T06:01:47;103521.34;;;7.61;81.96
3294;BME280;1659;51.470;6.770;2023-02-13T06:04:14;103521.75;;;7.49;81.83
3294;BME280;1659;51.470;6.770;2023-02-13T06:06:42;103524.13;;;7.41;82.04
3294;BME280;1659;51.470;6.770;2023-02-13T06:09:09;103523.84;;;7.35;82.52
3294;BME280;1659;51.470;6.770;2023-02-13T06:11:36;103513.81;;;7.25;82.73
3294;BME280;1659;51.470;6.770;2023-02-13T06:14:03;103522.25;;;7.16;82.38
3294;BME280;1659;51.470;6.770;2023-02-13T06:16:29;103515.00;;;7.10;82.33
3294;BME280;1659;51.470;6.770;2023-02-13T06:18:56;103520.00;;;7.04;83.10
3294;BME280;1659;51.470;6.770;2023-02-13T06:21:22;103526.78;;;6.97;83.27
3294;BME280;1659;51.470;6.770;2023-02-13T06:23:50;103519.41;;;6.89;83.13
3294;BME280;1659;51.470;6.770;2023-02-13T06:26:17;103517.25;;;6.78;82.84
3294;BME280;1659;51.470;6.770;2023-02-13T06:28:44;103517.75;;;6.70;83.34
3294;BME280;1659;51.470;6.770;2023-02-13T06:31:10;103514.75;;;6.60;83.42
3294;BME280;1659;51.470;6.770;2023-02-13T06:33:37;103524.03;;;6.52;83.54
3294;BME280;1659;51.470;6.770;2023-02-13T06:36:04;103524.47;;;6.42;83.30
3294;BME280;1659;51.470;6.770;2023-02-13T06:38:30;103531.09;;;6.34;83.97
3294;BME280;1659;51.470;6.770;2023-02-13T06:41:00;103530.00;;;6.29;83.43
3294;BME280;1659;51.470;6.770;2023-02-13T06:43:27;103520.22;;;6.24;83.24
3294;BME280;1659;51.470;6.770;2023-02-13T06:45:53;103521.81;;;6.21;83.84
3294;BME280;1659;51.470;6.770;2023-02-13T06:48:20;103523.41;;;6.17;83.55
3294;BME280;1659;51.470;6.770;2023-02-13T06:50:46;103524.09;;;6.13;83.33
3294;BME280;1659;51.470;6.770;2023-02-13T06:53:13;103525.69;;;6.10;83.49
3294;BME280;1659;51.470;6.770;2023-02-13T06:55:39;103521.13;;;6.05;83.76
3294;BME280;1659;51.470;6.770;2023-02-13T06:58:07;103521.91;;;6.03;83.84
3294;BME280;1659;51.470;6.770;2023-02-13T07:00:34;103520.03;;;6.00;83.54
3294;BME280;1659;51.470;6.770;2023-02-13T07:03:02;103517.19;;;5.96;84.06
3294;BME280;1659;51.470;6.770;2023-02-13T07:05:29;103522.38;;;5.94;83.76
3294;BME280;1659;51.470;6.770;2023-02-13T07:07:56;103530.25;;;5.94;83.58
3294;BME280;1659;51.470;6.770;2023-02-13T07:10:22;103519.66;;;5.93;83.61
3294;BME280;1659;51.470;6.770;2023-02-13T07:12:49;103526.59;;;5.91;83.67
3294;BME280;1659;51.470;6.770;2023-02-13T07:15:17;103532.78;;;5.93;83.99
3294;BME280;1659;51.470;6.770;2023-02-13T07:17:44;103533.59;;;5.92;83.89
3294;BME280;1659;51.470;6.770;2023-02-13T07:20:11;103538.78;;;5.90;83.91
3294;BME280;1659;51.470;6.770;2023-02-13T07:22:37;103538.78;;;5.90;84.12
3294;BME280;1659;51.470;6.770;2023-02-13T07:25:04;103544.19;;;5.93;83.64
3294;BME280;1659;51.470;6.770;2023-02-13T07:27:31;103538.19;;;5.96;83.79
3294;BME280;1659;51.470;6.770;2023-02-13T07:29:57;103540.00;;;5.97;84.23
3294;BME280;1659;51.470;6.770;2023-02-13T07:32:25;103540.16;;;6.00;84.09
3294;BME280;1659;51.470;6.770;2023-02-13T07:34:52;103546.50;;;6.05;84.24
3294;BME280;1659;51.470;6.770;2023-02-13T07:37:18;103551.03;;;6.09;83.44
3294;BME280;1659;51.470;6.770;2023-02-13T07:39:45;103547.78;;;6.15;83.67
3294;BME280;1659;51.470;6.770;2023-02-13T07:42:11;103555.06;;;6.20;83.69
3294;BME280;1659;51.470;6.770;2023-02-13T07:44:38;103546.56;;;6.26;84.25
3294;BME280;1659;51.470;6.770;2023-02-13T07:47:04;103549.44;;;6.32;84.22
3294;BME280;1659;51.470;6.770;2023-02-13T07:49:32;103559.44;;;6.41;83.97
3294;BME280;1659;51.470;6.770;2023-02-13T07:52:01;103556.44;;;6.53;83.86
3294;BME280;1659;51.470;6.770;2023-02-13T07:54:27;103557.94;;;6.67;83.86
3294;BME280;1659;51.470;6.770;2023-02-13T07:56:54;103567.41;;;6.85;84.51
3294;BME280;1659;51.470;6.770;2023-02-13T07:59:20;103557.69;;;7.03;83.88
3294;BME280;1659;51.470;6.770;2023-02-13T08:01:47;103560.06;;;7.19;84.10
3294;BME280;1659;51.470;6.770;2023-02-13T08:04:13;103561.72;;;7.38;83.33
3294;BME280;1659;51.470;6.770;2023-02-13T08:06:41;103558.94;;;7.58;83.47
3294;BME280;1659;51.470;6.770;2023-02-13T08:09:17;103553.72;;;7.82;82.85
3294;BME280;1659;51.470;6.770;2023-02-13T08:12:03;103551.44;;;8.16;82.32
3294;BME280;1659;51.470;6.770;2023-02-13T08:14:29;103552.75;;;8.53;82.28
3294;BME280;1659;51.470;6.770;2023-02-13T08:16:57;103555.25;;;9.01;81.72
3294;BME280;1659;51.470;6.770;2023-02-13T08:19:24;103555.19;;;9.55;80.73
3294;BME280;1659;51.470;6.770;2023-02-13T08:21:52;103551.53;;;10.11;79.92
3294;BME280;1659;51.470;6.770;2023-02-13T08:24:18;103548.78;;;10.71;78.61
3294;BME280;1659;51.470;6.770;2023-02-13T08:26:45;103541.31;;;11.28;77.29
3294;BME280;1659;51.470;6.770;2023-02-13T08:29:12;103539.56;;;11.69;76.35
3294;BME280;1659;51.470;6.770;2023-02-13T08:31:38;103550.38;;;12.23;75.58
3294;BME280;1659;51.470;6.770;2023-02-13T08:34:05;103549.53;;;12.74;74.18
3294;BME280;1659;51.470;6.770;2023-02-13T08:36:31;103544.94;;;13.20;73.46
3294;BME280;1659;51.470;6.770;2023-02-13T08:38:59;103546.47;;;13.64;72.58
3294;BME280;1659;51.470;6.770;2023-02-13T08:41:25;103553.19;;;14.06;71.55
3294;BME280;1659;51.470;6.770;2023-02-13T08:43:52;103543.84;;;14.45;70.49
3294;BME280;1659;51.470;6.770;2023-02-13T08:46:19;103534.50;;;14.92;69.32
3294;BME280;1659;51.470;6.770;2023-02-13T08:48:46;103540.91;;;15.19;68.67
3294;BME280;1659;51.470;6.770;2023-02-13T08:51:13;103540.22;;;15.52;68.02
3294;BME280;1659;51.470;6.770;2023-02-13T08:53:39;103539.38;;;15.64;66.70
3294;BME280;1659;51.470;6.770;2023-02-13T08:56:08;103550.06;;;15.72;66.58
3294;BME280;1659;51.470;6.770;2023-02-13T08:58:35;103544.69;;;15.62;66.83
3294;BME280;1659;51.470;6.770;2023-02-13T09:01:04;103539.50;;;15.93;65.98
3294;BME280;1659;51.470;6.770;2023-02-13T09:03:31;103539.59;;;16.22;65.51
3294;BME280;1659;51.470;6.770;2023-02-13T09:05:58;103542.28;;;16.49;64.91
3294;BME280;1659;51.470;6.770;2023-02-13T09:08:25;103540.53;;;16.60;64.29
3294;BME280;1659;51.470;6.770;2023-02-13T09:10:56;103542.31;;;16.67;64.07
3294;BME280;1659;51.470;6.770;2023-02-13T09:13:24;103541.41;;;16.74;63.82
3294;BME280;1659;51.470;6.770;2023-02-13T09:15:51;103544.97;;;16.79;63.43
3294;BME280;1659;51.470;6.770;2023-02-13T09:18:17;103543.19;;;16.88;63.02
3294;BME280;1659;51.470;6.770;2023-02-13T09:20:44;103545.84;;;16.75;62.73
3294;BME280;1659;51.470;6.770;2023-02-13T09:23:10;103537.00;;;16.92;62.25
3294;BME280;1659;51.470;6.770;2023-02-13T09:25:37;103544.09;;;16.93;62.19
3294;BME280;1659;51.470;6.770;2023-02-13T09:28:03;103543.22;;;16.94;61.67
3294;BME280;1659;51.470;6.770;2023-02-13T09:30:31;103542.31;;;16.98;61.54
3294;BME280;1659;51.470;6.770;2023-02-13T09:32:58;103542.28;;;17.15;61.49
3294;BME280;1659;51.470;6.770;2023-02-13T09:35:24;103542.25;;;17.33;60.86
3294;BME280;1659;51.470;6.770;2023-02-13T09:37:51;103539.53;;;17.43;60.47
3294;BME280;1659;51.470;6.770;2023-02-13T09:40:21;103552.88;;;17.55;59.94
3294;BME280;1659;51.470;6.770;2023-02-13T09:42:50;103549.19;;;17.82;59.53
3294;BME280;1659;51.470;6.770;2023-02-13T09:45:19;103541.97;;;18.04;58.99
3294;BME280;1659;51.470;6.770;2023-02-13T09:47:49;103548.13;;;18.19;58.11
3294;BME280;1659;51.470;6.770;2023-02-13T09:50:18;103552.59;;;18.21;58.23
3294;BME280;1659;51.470;6.770;2023-02-13T09:52:49;103548.06;;;18.29;57.88
3294;BME280;1659;51.470;6.770;2023-02-13T09:55:18;103547.03;;;18.49;57.41
3294;BME280;1659;51.470;6.770;2023-02-13T09:57:52;103545.16;;;18.60;56.93
3294;BME280;1659;51.470;6.770;2023-02-13T10:00:25;103547.66;;;18.85;56.70
3294;BME280;1659;51.470;6.770;2023-02-13T10:03:18;103540.38;;;18.99;56.20
3294;BME280;1659;51.470;6.770;2023-02-13T10:05:52;103536.75;;;19.07;56.01
3294;BME280;1659;51.470;6.770;2023-02-13T10:08:33;103541.13;;;19.14;55.21
3294;BME280;1659;51.470;6.770;2023-02-13T10:11:13;103540.25;;;19.12;55.28
3294;BME280;1659;51.470;6.770;2023-02-13T10:13:56;103534.75;;;19.26;55.23
3294;BME280;1659;51.470;6.770;2023-02-13T10:16:28;103534.78;;;19.21;54.90
3294;BME280;1659;51.470;6.770;2023-02-13T10:19:02;103541.88;;;19.25;54.80
3294;BME280;1659;51.470;6.770;2023-02-13T10:21:33;103540.88;;;19.37;54.51
3294;BME280;1659;51.470;6.770;2023-02-13T10:24:05;103538.97;;;19.47;53.76
3294;BME280;1659;51.470;6.770;2023-02-13T10:26:37;103537.19;;;19.46;53.36
3294;BME280;1659;51.470;6.770;2023-02-13T10:29:14;103546.25;;;19.34;53.55
3294;BME280;1659;51.470;6.770;2023-02-13T10:32:07;103541.59;;;19.50;53.33
3294;BME280;1659;51.470;6.770;2023-02-13T10:34:38;103540.41;;;19.78;52.55
3294;BME280;1659;51.470;6.770;2023-02-13T10:37:12;103544.66;;;19.92;51.64
3294;BME280;1659;51.470;6.770;2023-02-13T10:39:41;103541.69;;;20.13;51.25
3294;BME280;1659;51.470;6.770;2023-02-13T10:42:16;103537.53;;;19.91;51.32
3294;BME280;1659;51.470;6.770;2023-02-13T10:44:53;103541.25;;;19.80;51.33
3294;BME280;1659;51.470;6.770;2023-02-13T10:47:36;103533.66;;;19.42;51.29
3294;BME280;1659;51.470;6.770;2023-02-13T10:50:18;103532.78;;;19.41;51.45
3294;BME280;1659;51.470;6.770;2023-02-13T10:52:53;103529.19;;;19.39;50.70
3294;BME280;1659;51.470;6.770;2023-02-13T10:55:39;103530.81;;;19.56;50.35
3294;BME280;1659;51.470;6.770;2023-02-13T10:58:12;103526.97;;;19.80;50.21
3294;BME280;1659;51.470;6.770;2023-02-13T11:00:45;103521.13;;;20.11;49.36
3294;BME280;1659;51.470;6.770;2023-02-13T11:03:17;103518.41;;;20.14;49.14
3294;BME280;1659;51.470;6.770;2023-02-13T11:05:46;103517.50;;;20.16;48.84
3294;BME280;1659;51.470;6.770;2023-02-13T11:08:17;103507.84;;;20.03;49.02
3294;BME280;1659;51.470;6.770;2023-02-13T11:10:45;103510.41;;;20.09;48.73
3294;BME280;1659;51.470;6.770;2023-02-13T11:13:18;103512.97;;;20.20;48.30
3294;BME280;1659;51.470;6.770;2023-02-13T11:16:02;103510.94;;;20.34;47.78
3294;BME280;1659;51.470;6.770;2023-02-13T11:18:31;103508.84;;;20.53;47.61
3294;BME280;1659;51.470;6.770;2023-02-13T11:21:05;103499.44;;;20.25;47.19
3294;BME280;1659;51.470;6.770;2023-02-13T11:23:36;103487.91;;;20.18;47.27
3294;BME280;1659;51.470;6.770;2023-02-13T11:26:06;103488.84;;;20.15;47.31
3294;BME280;1659;51.470;6.770;2023-02-13T11:28:37;103497.91;;;20.10;46.96
3294;BME280;1659;51.470;6.770;2023-02-13T11:31:13;103488.19;;;20.01;46.66
3294;BME280;1659;51.470;6.770;2023-02-13T11:33:44;103478.94;;;20.21;46.58
3294;BME280;1659;51.470;6.770;2023-02-13T11:36:15;103481.28;;;20.41;46.15
3294;BME280;1659;51.470;6.770;2023-02-13T11:38:42;103477.50;;;20.52;45.88
3294;BME280;1659;51.470;6.770;2023-02-13T11:41:10;103478.09;;;20.70;45.51
3294;BME280;1659;51.470;6.770;2023-02-13T11:43:45;103472.63;;;20.78;45.14
3294;BME280;1659;51.470;6.770;2023-02-13T11:46:17;103472.72;;;20.70;45.20
3294;BME280;1659;51.470;6.770;2023-02-13T11:48:56;103471.97;;;20.62;45.10
3294;BME280;1659;51.470;6.770;2023-02-13T11:51:36;103466.56;;;20.65;44.92
3294;BME280;1659;51.470;6.770;2023-02-13T11:54:04;103464.84;;;20.59;45.21
3294;BME280;1659;51.470;6.770;2023-02-13T11:56:47;103458.94;;;20.90;44.12
3294;BME280;1659;51.470;6.770;2023-02-13T11:59:13;103465.78;;;21.05;44.27
3294;BME280;1659;51.470;6.770;2023-02-13T12:01:40;103458.84;;;21.38;43.80
3294;BME280;1659;51.470;6.770;2023-02-13T12:04:13;103455.50;;;21.69;43.22
3294;BME280;1659;51.470;6.770;2023-02-13T12:06:57;103448.53;;;21.98;42.69
3294;BME280;1659;51.470;6.770;2023-02-13T12:09:24;103452.56;;;21.80;42.89
3294;BME280;1659;51.470;6.770;2023-02-13T12:11:52;103447.53;;;22.03;42.62
3294;BME280;1659;51.470;6.770;2023-02-13T12:14:22;103438.69;;;22.34;42.24
3294;BME280;1659;51.470;6.770;2023-02-13T12:16:53;103435.19;;;22.31;41.83
3294;BME280;1659;51.470;6.770;2023-02-13T12:19:24;103446.16;;;22.21;42.24
3294;BME280;1659;51.470;6.770;2023-02-13T12:22:15;103434.31;;;22.30;41.91
3294;BME280;1659;51.470;6.770;2023-02-13T12:27:55;103433.19;;;22.39;41.26
3294;BME280;1659;51.470;6.770;2023-02-13T12:33:32;103415.13;;;22.42;40.88
3294;BME280;1659;51.470;6.770;2023-02-13T12:36:11;103411.34;;;22.83;40.05
3294;BME280;1659;51.470;6.770;2023-02-13T12:39:02;103416.38;;;23.26;39.40
3294;BME280;1659;51.470;6.770;2023-02-13T12:41:37;103411.44;;;23.69;39.13
3294;BME280;1659;51.470;6.770;2023-02-13T12:44:36;103408.66;;;23.72;38.85
3294;BME280;1659;51.470;6.770;2023-02-13T12:47:14;103401.94;;;24.12;38.56
3294;BME280;1659;51.470;6.770;2023-02-13T12:49:56;103395.28;;;24.47;38.14
3294;BME280;1659;51.470;6.770;2023-02-13T12:52:38;103407.63;;;24.81;37.85
3294;BME280;1659;51.470;6.770;2023-02-13T12:55:21;103391.03;;;23.88;38.06
3294;BME280;1659;51.470;6.770;2023-02-13T12:58:06;103391.53;;;24.26;38.02
3294;BME280;1659;51.470;6.770;2023-02-13T13:00:44;103391.16;;;23.85;38.34
3294;BME280;1659;51.470;6.770;2023-02-13T13:03:27;103382.88;;;24.17;37.98
3294;BME280;1659;51.470;6.770;2023-02-13T13:06:15;103379.84;;;24.51;37.52
3294;BME280;1659;51.470;6.770;2023-02-13T13:09:03;103378.56;;;24.86;36.43
3294;BME280;1659;51.470;6.770;2023-02-13T13:11:57;103382.69;;;24.73;36.73
3294;BME280;1659;51.470;6.770;2023-02-13T13:14:34;103376.72;;;24.63;36.87
3294;BME280;1659;51.470;6.770;2023-02-13T13:17:10;103380.25;;;24.65;36.66
3294;BME280;1659;51.470;6.770;2023-02-13T13:19:44;103377.59;;;24.89;36.47
3294;BME280;1659;51.470;6.770;2023-02-13T13:22:17;103380.41;;;25.33;35.83
3294;BME280;1659;51.470;6.770;2023-02-13T13:24:59;103369.91;;;25.00;35.72
3294;BME280;1659;51.470;6.770;2023-02-13T13:27:34;103371.16;;;24.92;35.97
3294;BME280;1659;51.470;6.770;2023-02-13T13:30:05;103361.75;;;25.02;35.79
3294;BME280;1659;51.470;6.770;2023-02-13T13:32:39;103358.34;;;25.20;35.75
3294;BME280;1659;51.470;6.770;2023-02-13T13:35:12;103353.75;;;24.75;35.81
3294;BME280;1659;51.470;6.770;2023-02-13T13:37:42;103356.88;;;25.12;35.65
3294;BME280;1659;51.470;6.770;2023-02-13T13:40:25;103353.53;;;25.51;34.82
3294;BME280;1659;51.470;6.770;2023-02-13T13:43:01;103353.91;;;25.41;34.82
3294;BME280;1659;51.470;6.770;2023-02-13T13:45:37;103350.00;;;25.71;34.57
3294;BME280;1659;51.470;6.770;2023-02-13T13:51:11;103338.53;;;26.48;33.70
3294;BME280;1659;51.470;6.770;2023-02-13T13:57:07;103342.72;;;27.13;32.84
3294;BME280;1659;51.470;6.770;2023-02-13T13:59:55;103334.59;;;26.94;33.40